Flight Track Log - Related Links

Times and Time Zones

All times are in EDT time to prevent confusion due to time zone crossing. See the N762NC flight status page for this flight to view local times or setup timezone preferences in your user account.

Time Position Orientation Groundspeed Altitude Reporting Facility
EDT Latitude Longitude Course Direction KTS MPH feet Rate Location/Type
Mon 03:16:56 PM 42.0000 -87.9333 14° North 165 190 1,500  Level Chicago TRACON
Mon 03:17:56 PM 42.0500 -87.9333 360° North 195 224 3,100 1,619 Climbing Chicago TRACON
Mon 03:19:02 PM 42.1167 -87.9000 20° North 265 305 4,900 2,103 Climbing Chicago TRACON
Mon 03:19:53 PM 42.1742 -87.8628 26° Northeast 266 306 7,200 2,496 Climbing Chicago Center
Mon 03:20:00 PM 42.0191 -87.3573 14° North  Level Estimated
Mon 03:20:55 PM 42.2489 -87.8289 19° North 284 327 9,600  Level Chicago Center
Mon 03:21:00 PM 42.1176 -87.3955 344° North  Level FlightAware Approximate
Mon 03:21:57 PM 42.3431 -87.8206 North 298 343 11,800  Level Chicago Center
Mon 03:22:00 PM 42.1232 -87.2575 14° North  Level Estimated
Mon 03:22:59 PM 42.4392 -87.8111 North 338 389 12,500  Level Chicago Center
Mon 03:24:01 PM 42.5333 -87.7444 28° Northeast 362 417 15,500 2,323 Climbing Chicago Center
Mon 03:25:03 PM 42.6189 -87.6792 29° Northeast 368 423 17,300 1,548 Climbing Chicago Center
Mon 03:26:05 PM 42.6889 -87.5742 48° Northeast 397 457 18,700 1,440 Climbing Chicago Center
Mon 03:27:08 PM 42.7242 -87.4358 71° East 389 448 20,300 1,440 Climbing Chicago Center
Mon 03:28:10 PM 42.7739 -87.2872 65° Northeast 404 465 21,700 1,258 Climbing Chicago Center
Mon 03:29:12 PM 42.8294 -87.1436 62° Northeast 421 484 22,900 581 Climbing Chicago Center
Mon 03:30:14 PM 42.8914 -86.9539 66° East 457 526 22,900 48 Level Chicago Center
Mon 03:31:16 PM 42.9497 -86.7911 64° Northeast 475 547 23,000  Climbing Chicago Center
Mon 03:32:18 PM 43.0142 -86.6303 61° Northeast 480 552 22,900 -48 Descending Chicago Center
Mon 03:33:20 PM 43.0728 -86.4658 64° Northeast 481 554 22,900  Level Chicago Center
Mon 03:34:22 PM 43.1144 -86.2922 72° East 478 550 22,900  Level Chicago Center
Mon 03:35:24 PM 43.1561 -86.1167 72° East 479 551 22,900  Level Chicago Center
Mon 03:36:27 PM 43.1875 -85.9336 77° East 480 552 22,900  Level Chicago Center
Mon 03:37:29 PM 43.2103 -85.7522 80° East 477 549 22,900  Level Chicago Center
Mon 03:38:31 PM 43.2358 -85.5383 81° East 474 545 22,900 48 Level Chicago Center
Mon 03:39:33 PM 43.2567 -85.3619 81° East 471 542 23,000 48 Climbing Chicago Center
Mon 03:40:35 PM 43.2517 -85.1844 92° East 469 540 23,000  Level Chicago Center
Mon 03:41:37 PM 43.2192 -85.0192 105° East 453 521 23,000 -144 Level Chicago Center
Mon 03:42:40 PM 43.1858 -84.8553 106° East 448 516 22,700 -528 Descending Chicago Center
Mon 03:43:42 PM 43.1514 -84.6917 106° East 448 516 21,900 -1,113 Descending Chicago Center
Mon 03:44:44 PM 43.1172 -84.5094 104° East 415 478 20,400 -1,597 Descending Chicago Center
Mon 03:45:46 PM 43.0872 -84.3642 106° East 400 460 18,600 -1,694 Descending Chicago Center
Mon 03:46:48 PM 43.0628 -84.2286 104° East 374 430 16,900 -1,452 Descending Chicago Center
Mon 03:47:50 PM 43.0375 -84.0925 104° East 365 420 15,600 -1,382 Descending Chicago Center
Mon 03:49:20 PM 42.9986 -83.8936 105° East 353 406 13,400 -1,603 Descending Cleveland Center
Mon 03:49:46 PM 42.9819 -83.8347 111° Southeast 351 404 12,500 -1,355 Descending Cleveland Center
Mon 03:50:22 PM 42.9428 -83.7928 142° Southeast 364 419 12,000 -393 Descending Cleveland Center
Mon 03:50:47 PM 42.9036 -83.7689 156° South 332 382 12,100  Climbing Cleveland Center
Mon 03:51:24 PM 42.8606 -83.7372 152° Southeast 334 384 12,000 -98 Descending Cleveland Center
Mon 03:51:48 PM 42.8139 -83.7100 157° South 337 388 12,000  Level Cleveland Center
Mon 03:52:26 PM 42.7747 -83.6825 153° Southeast 340 391 12,000  Level Cleveland Center
Mon 03:52:49 PM 42.7261 -83.6544 157° South 343 395 12,000  Level Cleveland Center
Mon 03:53:28 PM 42.6706 -83.6192 155° Southeast 342 394 12,000  Level Cleveland Center
Mon 03:53:44 PM 42.6461 -83.6056 158° South 345 397 12,000  Level Cleveland Center
Mon 03:54:30 PM 42.5831 -83.5656 155° Southeast 344 396 12,000  Level Cleveland Center
Mon 03:54:51 PM 42.5522 -83.5494 159° South 342 394 12,000  Level Cleveland Center
Mon 03:55:32 PM 42.4964 -83.5131 154° Southeast 343 395 12,000  Level Cleveland Center
Mon 03:55:46 PM 42.4725 -83.4983 156° South 338 389 12,000  Level Cleveland Center
Mon 03:56:34 PM 42.4083 -83.4583 155° Southeast 335 386 12,000  Level Cleveland Center
Mon 03:56:47 PM 42.3906 -83.4469 155° Southeast 311 358 12,000 95 Level Cleveland Center
Mon 03:57:37 PM 42.3436 -83.4003 144° Southeast 279 321 12,100 98 Climbing Cleveland Center
Mon 03:57:48 PM 42.3286 -83.3817 137° Southeast 260 299 12,100  Level Cleveland Center
Mon 03:58:39 PM 42.2944 -83.3275 130° Southeast 262 302 12,100  Level Cleveland Center
Mon 03:58:49 PM 42.2797 -83.3097 138° Southeast 258 297 12,100 -194 Level Cleveland Center
Mon 03:59:41 PM 42.2419 -83.2581 135° Southeast 262 302 11,900 -677 Descending Cleveland Center
Mon 03:59:51 PM 42.2261 -83.2431 145° Southeast 266 306 11,400 -1,935 Descending Cleveland Center
Mon 04:00:43 PM 42.1789 -83.2483 185° South 244 281 9,900 -1,970 Descending Cleveland Center
Mon 04:00:58 PM 42.1556 -83.2614 203° Southwest 245 282 9,200 -1,935 Descending Cleveland Center
Mon 04:01:45 PM 42.1031 -83.2844 198° South 246 283 7,900 -1,636 Descending Cleveland Center
Mon 04:01:53 PM 42.0969 -83.2897 213° Southwest 237 273 7,700 -968 Descending Cleveland Center
Mon 04:02:47 PM 42.0433 -83.3161 200° South 233 268 6,900 -984 Descending Cleveland Center
Mon 04:02:54 PM 42.0333 -83.3231 207° Southwest 229 264 6,700 -1,452 Descending Cleveland Center
Mon 04:03:49 PM 41.9883 -83.3483 203° Southwest 219 252 5,400 -1,475 Descending Cleveland Center
Mon 04:03:55 PM 41.9806 -83.3550 213° Southwest 210 242 5,200 -1,065 Descending Cleveland Center
Mon 04:04:51 PM 41.9719 -83.4158 259° West 211 243 4,300 -1,065 Descending Cleveland Center
Mon 04:04:57 PM 41.9744 -83.4328 281° West 207 238 4,100 -484 Descending Cleveland Center
Mon 04:05:53 PM 42.0111 -83.4522 338° Northwest 200 230 3,800 -295 Descending Cleveland Center
Mon 04:05:58 PM 42.0233 -83.4511 North 180 207 3,800 -194 Level Cleveland Center
Mon 04:06:55 PM 42.0597 -83.4403 12° North 181 208 3,600 -295 Descending Cleveland Center
Mon 04:06:59 PM 42.0706 -83.4381 North 176 203 3,500 -774 Descending Cleveland Center
Mon 04:07:57 PM 42.1058 -83.4161 25° Northeast 180 207 2,800 -984 Descending Cleveland Center
Mon 04:08:00 PM 42.1169 -83.4081 28° Northeast 182 209 2,500 -1,161 Descending Cleveland Center
Mon 04:08:59 PM 42.1553 -83.3806 28° Northeast 175 201 1,600 -985 Descending Cleveland Center
Mon 04:09:07 PM 42.1611 -83.3778 19° North 138 159 1,400 -762 Descending Cleveland Center
Mon 04:10:02 PM 42.1886 -83.3561 30° Northeast 152 175 800 -655 Descending Cleveland Center

Login

Don't have an account? Register now (free) for customized features, flight alerts, and more!